Time;durP1;ratioP1;P1;durP2;ratioP2;P2;SDS_P1;SDS_P2;PMS_P1;PMS_P2;Temp;Humidity;BMP_temperature;BMP_pressure;BME280_temperature;BME280_humidity;BME280_pressure;Samples;Min_cycle;Max_cycle;Signal;HPM_P1;HPM_P2
2024/04/12 00:01:49;;;;;;;5.63;4.40;;;;;;;10.32;82.60;99700.19;4531783;26;20926;-83
2024/04/12 00:03:59;;;;;;;7.10;4.80;;;;;;;10.28;82.39;99703.81;4505523;26;20559;-83
2024/04/12 00:06:05;;;;;;;7.47;4.57;;;;;;;10.25;83.13;99703.94;4524777;26;20675;-83
2024/04/12 00:08:13;;;;;;;4.87;4.37;;;;;;;10.21;83.01;99699.78;4537548;26;20960;-82
2024/04/12 00:10:17;;;;;;;8.77;4.60;;;;;;;10.17;82.54;99698.22;4504099;26;20551;-83
2024/04/12 00:12:25;;;;;;;7.77;4.60;;;;;;;10.16;83.31;99690.44;4526270;26;20646;-81
2024/04/12 00:14:32;;;;;;;7.13;4.90;;;;;;;10.13;83.21;99699.25;4536724;26;20668;-82
2024/04/12 00:16:43;;;;;;;8.10;4.57;;;;;;;10.05;83.02;99688.28;4528931;26;21107;-83
2024/04/12 00:18:46;;;;;;;5.83;4.93;;;;;;;9.96;83.14;99691.25;4494327;26;20674;-83
2024/04/12 00:20:58;;;;;;;6.30;4.73;;;;;;;9.98;82.86;99693.81;4538049;26;20607;-83
2024/04/12 00:23:02;;;;;;;7.20;4.90;;;;;;;9.92;82.95;99687.06;4536900;26;20574;-83
2024/04/12 00:25:12;;;;;;;5.57;4.43;;;;;;;9.91;82.63;99690.56;4527143;26;20607;-83
2024/04/12 00:27:15;;;;;;;7.87;4.67;;;;;;;9.89;83.90;99689.78;4500272;26;20559;-82
2024/04/12 00:29:25;;;;;;;8.13;4.60;;;;;;;9.89;83.79;99691.53;4531412;26;20605;-82
2024/04/12 00:31:42;;;;;;;6.60;4.53;;;;;;;9.92;83.56;99689.66;4535694;26;20562;-83
2024/04/12 00:33:48;;;;;;;5.80;4.50;;;;;;;9.88;83.45;99682.03;4536160;26;20956;-83
2024/04/12 00:35:57;;;;;;;6.30;4.80;;;;;;;9.85;83.59;99676.94;4558201;25;22164;-83
2024/04/12 00:38:03;;;;;;;8.67;5.10;;;;;;;9.81;83.52;99680.56;4537732;26;21178;-83
2024/04/12 00:40:10;;;;;;;7.20;4.93;;;;;;;9.77;83.71;99672.94;4544855;26;20685;-82
2024/04/12 00:42:14;;;;;;;6.97;4.83;;;;;;;9.74;83.63;99678.28;4502690;26;20643;-83
2024/04/12 00:44:20;;;;;;;7.73;4.70;;;;;;;9.72;83.69;99674.88;4527116;26;20633;-83
2024/04/12 00:46:25;;;;;;;6.97;5.13;;;;;;;9.69;83.92;99672.41;4536336;26;20587;-82
2024/04/12 00:48:31;;;;;;;6.40;5.00;;;;;;;9.69;84.45;99667.19;4537067;26;20689;-83
2024/04/12 00:50:37;;;;;;;7.10;5.20;;;;;;;9.70;84.13;99672.34;4541839;26;21070;-83
2024/04/12 00:52:45;;;;;;;9.10;5.03;;;;;;;9.70;84.02;99668.91;4538688;26;20557;-83
2024/04/12 00:54:54;;;;;;;5.77;4.90;;;;;;;9.71;84.26;99673.19;4502572;26;20679;-83
2024/04/12 00:57:00;;;;;;;7.67;5.00;;;;;;;9.69;84.47;99673.25;4527913;26;20554;-82
2024/04/12 00:59:08;;;;;;;6.87;5.00;;;;;;;9.70;84.25;99671.50;4537428;26;20556;-82
2024/04/12 01:01:15;;;;;;;8.20;5.63;;;;;;;9.66;84.74;99672.53;4532835;26;20623;-82
2024/04/12 01:03:18;;;;;;;8.00;4.70;;;;;;;9.60;84.48;99671.00;4536912;26;20637;-82
2024/04/12 01:05:24;;;;;;;6.00;4.53;;;;;;;9.60;84.49;99672.75;4548222;26;20967;-83
2024/04/12 01:07:27;;;;;;;5.63;4.37;;;;;;;9.59;84.24;99673.66;4535472;26;20586;-82
2024/04/12 01:09:36;;;;;;;5.90;4.67;;;;;;;9.55;84.30;99670.34;4535258;26;20558;-83
2024/04/12 01:11:43;;;;;;;5.70;4.80;;;;;;;9.47;84.13;99669.78;4509781;26;20577;-83
2024/04/12 01:13:51;;;;;;;6.73;4.60;;;;;;;9.38;84.10;99668.44;4536109;26;20573;-83
2024/04/12 01:15:58;;;;;;;6.13;4.80;;;;;;;9.32;84.64;99671.28;4529244;26;20570;-82
2024/04/12 01:18:04;;;;;;;6.93;4.40;;;;;;;9.26;85.05;99674.97;4522702;26;20556;-83
2024/04/12 01:20:12;;;;;;;6.93;4.53;;;;;;;9.24;84.91;99668.97;4533292;26;20577;-82
2024/04/12 01:22:15;;;;;;;5.20;3.93;;;;;;;9.26;84.59;99669.78;4526866;26;20604;-83
2024/04/12 01:24:21;;;;;;;7.43;4.70;;;;;;;9.26;85.25;99674.13;4537592;25;21122;-83
2024/04/12 01:26:27;;;;;;;8.17;4.87;;;;;;;9.24;85.56;99665.53;4529507;26;20606;-82
2024/04/12 01:28:35;;;;;;;6.70;4.70;;;;;;;9.22;85.82;99662.97;4506979;26;20679;-82
2024/04/12 01:30:39;;;;;;;5.70;4.13;;;;;;;9.22;85.01;99667.34;4531782;26;20609;-83
2024/04/12 01:32:50;;;;;;;5.40;4.00;;;;;;;9.22;85.24;99668.19;4534236;26;21142;-83
2024/04/12 01:34:55;;;;;;;7.63;4.20;;;;;;;9.27;84.95;99673.22;4531459;26;20562;-82
2024/04/12 01:37:01;;;;;;;8.17;5.10;;;;;;;9.24;85.22;99671.56;4520242;26;21112;-83
2024/04/12 01:39:11;;;;;;;6.20;4.30;;;;;;;9.23;84.81;99671.63;4532711;26;20570;-83
2024/04/12 01:41:21;;;;;;;7.30;3.83;;;;;;;9.17;85.10;99667.50;4530212;26;20550;-83
2024/04/12 01:43:26;;;;;;;6.70;4.27;;;;;;;9.12;85.15;99671.19;4566980;25;20953;-83
2024/04/12 01:45:33;;;;;;;6.90;4.30;;;;;;;9.07;85.41;99673.13;4533681;26;20570;-83
2024/04/12 01:47:37;;;;;;;5.47;4.00;;;;;;;9.07;85.20;99673.97;4518752;26;20563;-83
2024/04/12 01:49:43;;;;;;;4.77;3.77;;;;;;;9.07;85.31;99678.31;4542629;26;20573;-83
2024/04/12 01:51:47;;;;;;;6.80;4.37;;;;;;;9.04;86.09;99678.44;4508131;26;21304;-82
2024/04/12 01:53:54;;;;;;;5.67;4.47;;;;;;;8.96;86.00;99676.13;4533721;26;20669;-83
2024/04/12 01:56:01;;;;;;;8.53;4.13;;;;;;;8.96;85.66;99680.47;4531462;26;20600;-83
2024/04/12 01:58:05;;;;;;;8.73;4.63;;;;;;;8.96;85.58;99683.09;4535895;26;21402;-82
2024/04/12 02:00:16;;;;;;;6.23;4.60;;;;;;;8.91;86.56;99673.75;4533261;26;20966;-83
2024/04/12 02:02:20;;;;;;;7.10;3.97;;;;;;;8.85;86.24;99684.34;4531575;26;20598;-81
2024/04/12 02:04:30;;;;;;;5.80;4.40;;;;;;;8.84;86.08;99686.13;4528932;26;20683;-83
2024/04/12 02:06:33;;;;;;;5.90;4.20;;;;;;;8.85;86.02;99686.97;4533050;26;20518;-83
2024/04/12 02:08:38;;;;;;;5.83;3.80;;;;;;;8.82;85.85;99687.91;4532633;26;20660;-82
2024/04/12 02:10:42;;;;;;;8.73;4.40;;;;;;;8.72;85.63;99680.50;4511065;26;20580;-82
2024/04/12 02:12:50;;;;;;;7.17;4.63;;;;;;;8.72;86.03;99685.69;4526010;26;20546;-82
2024/04/12 02:14:54;;;;;;;7.43;4.50;;;;;;;8.70;85.87;99672.75;4534999;26;20609;-83
2024/04/12 02:17:04;;;;;;;8.57;4.33;;;;;;;8.67;86.86;99675.44;4535909;26;20923;-83
2024/04/12 02:19:10;;;;;;;6.47;4.63;;;;;;;8.69;86.47;99675.41;4529872;26;20652;-82
2024/04/12 02:21:18;;;;;;;7.03;4.43;;;;;;;8.67;86.74;99685.00;4531216;26;20551;-82
2024/04/12 02:23:23;;;;;;;6.63;4.95;;;;;;;8.70;87.18;99683.16;4529057;26;20671;-83
2024/04/12 02:25:29;;;;;;;8.13;5.03;;;;;;;8.76;87.28;99679.50;4533755;26;20325;-82
2024/04/12 02:27:32;;;;;;;6.40;4.23;;;;;;;8.79;87.51;99689.78;4534425;26;20563;-82
2024/04/12 02:29:39;;;;;;;8.07;4.80;;;;;;;8.83;87.32;99691.38;4527441;26;20621;-82
2024/04/12 02:31:41;;;;;;;6.22;4.15;;;;;;;8.86;87.15;99688.66;4538036;26;20550;-83
2024/04/12 02:33:54;;;;;;;8.70;4.50;;;;;;;8.87;87.20;99690.34;4505974;26;20673;-82
2024/04/12 02:36:00;;;;;;;6.60;4.50;;;;;;;8.87;87.19;99690.34;4527852;26;20568;-83
2024/04/12 02:38:08;;;;;;;7.43;4.80;;;;;;;8.85;86.73;99689.56;4564347;26;20665;-82
2024/04/12 02:40:15;;;;;;;8.57;5.80;;;;;;;8.80;86.52;99692.31;4533264;26;20645;-82
2024/04/12 02:42:22;;;;;;;7.90;4.63;;;;;;;8.76;86.28;99695.09;4544379;26;20919;-82
2024/04/12 02:44:25;;;;;;;6.97;4.43;;;;;;;8.72;86.16;99690.88;4533271;26;20536;-83
2024/04/12 02:46:31;;;;;;;7.60;5.03;;;;;;;8.70;86.60;99692.72;4536468;25;21319;-82
2024/04/12 02:48:33;;;;;;;8.93;4.70;;;;;;;8.66;86.15;99680.69;4524508;26;20562;-82
2024/04/12 02:50:42;;;;;;;9.27;4.72;;;;;;;8.57;86.09;99687.09;4537859;26;20687;-82
2024/04/12 02:52:46;;;;;;;10.77;4.90;;;;;;;8.49;86.26;99677.84;4539696;26;20241;-83
2024/04/12 02:54:53;;;;;;;6.27;4.40;;;;;;;8.46;86.32;99672.75;4532869;26;20579;-82
2024/04/12 02:56:56;;;;;;;5.87;4.33;;;;;;;8.50;86.44;99680.41;4527508;26;20686;-83
2024/04/12 02:59:02;;;;;;;6.83;4.47;;;;;;;8.51;86.95;99686.47;4504242;26;20685;-82
2024/04/12 03:01:07;;;;;;;9.03;6.83;;;;;;;8.52;86.83;99688.16;4530677;26;20562;-82
2024/04/12 03:03:13;;;;;;;5.27;3.90;;;;;;;8.53;86.74;99684.66;4537942;26;20612;-82
2024/04/12 03:05:18;;;;;;;5.83;4.10;;;;;;;8.52;86.83;99688.16;4526483;26;20972;-82
2024/04/12 03:07:27;;;;;;;6.90;5.20;;;;;;;8.48;87.28;99695.22;4526870;26;20639;-82
2024/04/12 03:09:30;;;;;;;7.07;4.80;;;;;;;8.45;87.13;99689.28;4493580;26;20607;-82
2024/04/12 03:11:37;;;;;;;7.05;4.47;;;;;;;8.44;87.05;99684.13;4500182;26;20277;-82
2024/04/12 03:13:42;;;;;;;6.20;4.30;;;;;;;8.41;87.29;99685.06;4504136;26;20264;-82
2024/04/12 03:15:47;;;;;;;6.53;4.30;;;;;;;8.37;86.72;99688.66;4527256;26;20626;-82
2024/04/12 03:17:52;;;;;;;6.30;4.03;;;;;;;8.38;86.95;99689.53;4522614;26;20643;-82
2024/04/12 03:19:58;;;;;;;7.37;4.23;;;;;;;8.34;86.93;99690.53;4557744;26;20680;-83
2024/04/12 03:22:01;;;;;;;5.80;4.73;;;;;;;8.29;87.63;99687.25;4532441;26;20579;-82
2024/04/12 03:24:11;;;;;;;5.67;3.93;;;;;;;8.24;87.14;99687.41;4526457;26;20547;-83
2024/04/12 03:26:15;;;;;;;8.10;4.53;;;;;;;8.21;87.05;99684.03;4501756;26;20568;-82
2024/04/12 03:28:23;;;;;;;5.00;4.20;;;;;;;8.18;87.25;99690.22;4531356;26;20576;-82
2024/04/12 03:30:26;;;;;;;9.10;4.50;;;;;;;8.18;87.71;99689.38;4528720;26;20637;-82
2024/04/12 03:32:32;;;;;;;7.73;4.40;;;;;;;8.18;87.23;99685.00;4527401;26;20658;-82
2024/04/12 03:34:36;;;;;;;8.18;4.38;;;;;;;8.22;87.50;99688.34;4527938;26;20563;-82
2024/04/12 03:39:30;;;;;;;8.57;4.03;;;;;;;8.22;87.43;99696.97;4561082;26;20603;-82
2024/04/12 03:41:35;;;;;;;4.57;3.58;;;;;;;8.19;87.27;99689.28;4505638;26;20638;-82
2024/04/12 03:43:43;;;;;;;6.07;4.70;;;;;;;8.16;87.73;99693.75;4529387;26;20253;-83
2024/04/12 03:45:57;;;;;;;7.63;4.80;;;;;;;8.16;88.06;99696.34;4539122;26;21133;-82
2024/04/12 03:48:04;;;;;;;8.53;4.93;;;;;;;8.16;87.76;99697.22;4501936;26;20627;-81
2024/04/12 03:50:13;;;;;;;6.20;4.65;;;;;;;8.18;87.56;99692.81;4566497;26;20569;-82
2024/04/12 03:52:20;;;;;;;7.85;4.80;;;;;;;8.19;87.41;99696.25;4500169;26;20253;-82
2024/04/12 03:54:25;;;;;;;6.93;4.50;;;;;;;8.19;87.26;99691.03;4542798;26;20347;-82
2024/04/12 03:56:31;;;;;;;9.93;4.65;;;;;;;8.16;87.25;99702.41;4532468;26;20538;-83
2024/04/12 03:58:37;;;;;;;9.25;4.85;;;;;;;8.13;87.32;99696.44;4536627;26;20238;-82
2024/04/12 04:00:43;;;;;;;9.17;5.43;;;;;;;8.12;87.45;99689.56;4534611;26;21114;-82
2024/04/12 04:02:48;;;;;;;11.20;6.20;;;;;;;8.11;87.29;99700.81;4508679;26;21172;-82
2024/04/12 04:05:13;;;;;;;9.35;5.25;;;;;;;8.09;87.26;99705.22;4531856;26;20576;-82
2024/04/12 04:07:16;;;;;;;9.50;5.68;;;;;;;8.07;87.25;99702.69;4528746;26;20284;-82
2024/04/12 04:09:22;;;;;;;10.63;6.25;;;;;;;8.06;87.71;99708.75;4564285;25;20627;-83
2024/04/12 04:11:30;;;;;;;7.53;5.40;;;;;;;8.07;87.53;99707.00;4530107;26;20268;-82
2024/04/12 04:13:33;;;;;;;9.23;5.70;;;;;;;8.06;88.10;99707.91;4540136;25;20248;-82
2024/04/12 04:15:50;;;;;;;8.95;5.57;;;;;;;8.01;87.34;99704.59;4534314;26;20256;-82
2024/04/12 04:17:53;;;;;;;9.23;5.68;;;;;;;7.98;87.03;99700.38;4532718;26;20609;-83
2024/04/12 04:20:05;;;;;;;9.13;5.60;;;;;;;7.96;86.92;99707.34;4530385;26;20347;-82
2024/04/12 04:22:21;;;;;;;7.43;5.13;;;;;;;7.93;87.16;99703.16;4527689;26;20604;-82
2024/04/12 04:24:27;;;;;;;9.65;5.53;;;;;;;7.89;87.08;99704.16;4499476;26;20560;-82
2024/04/12 04:26:30;;;;;;;9.23;5.53;;;;;;;7.84;87.41;99700.88;4521187;26;20250;-82
2024/04/12 04:28:35;;;;;;;9.40;5.65;;;;;;;7.81;87.18;99704.41;4497963;26;20240;-82
2024/04/12 04:30:41;;;;;;;10.13;5.10;;;;;;;7.80;87.79;99694.06;4534147;26;20256;-82
2024/04/12 04:32:47;;;;;;;8.70;4.72;;;;;;;7.80;87.55;99701.84;4529778;26;20340;-83
2024/04/12 04:34:54;;;;;;;9.48;5.43;;;;;;;7.80;88.05;99700.09;4500141;26;20270;-83
2024/04/12 04:37:01;;;;;;;10.40;5.38;;;;;;;7.80;88.13;99699.25;4506472;26;20273;-82
2024/04/12 04:39:16;;;;;;;8.88;5.68;;;;;;;7.84;88.14;99706.06;4526749;26;20249;-82
2024/04/12 04:41:27;;;;;;;7.43;5.03;;;;;;;7.82;88.24;99695.72;4497106;26;20251;-82
2024/04/12 04:43:30;;;;;;;7.65;4.70;;;;;;;7.80;87.93;99689.69;4506942;26;20253;-82
2024/04/12 04:45:36;;;;;;;10.15;5.03;;;;;;;7.81;87.97;99691.41;4502984;26;20259;-81
2024/04/12 04:47:44;;;;;;;8.18;5.15;;;;;;;7.84;88.29;99696.50;4523543;26;20321;-81
2024/04/12 04:49:50;;;;;;;8.10;5.72;;;;;;;7.90;88.56;99698.91;4508103;26;20297;-82
2024/04/12 04:51:53;;;;;;;8.90;5.00;;;;;;;7.95;87.76;99689.22;4508673;26;20249;-82
2024/04/12 04:53:59;;;;;;;13.37;5.77;;;;;;;7.97;88.52;99697.81;4565727;25;20761;-82
2024/04/12 04:56:02;;;;;;;8.25;5.30;;;;;;;7.98;88.55;99695.19;4535082;26;20590;-82
2024/04/12 04:58:08;;;;;;;8.57;5.67;;;;;;;8.00;88.39;99698.56;4503338;26;21042;-82
2024/04/12 05:00:18;;;;;;;8.32;5.28;;;;;;;8.07;88.39;99704.41;4537951;26;20621;-85
2024/04/12 05:02:34;;;;;;;8.02;5.40;;;;;;;8.11;88.58;99701.69;4537410;26;20244;-83
2024/04/12 05:04:44;;;;;;;8.27;5.03;;;;;;;8.20;89.10;99713.53;4535334;26;20287;-83
2024/04/12 05:06:53;;;;;;;7.70;5.20;;;;;;;8.32;88.51;99720.94;4564198;26;20569;-83
2024/04/12 05:09:03;;;;;;;9.27;5.20;;;;;;;8.41;87.66;99721.47;4528050;26;20953;-83
2024/04/12 05:11:06;;;;;;;11.07;5.30;;;;;;;8.45;87.32;99717.88;4525714;26;20562;-83
2024/04/12 05:13:17;;;;;;;8.37;5.20;;;;;;;8.46;87.04;99711.75;4512985;26;21143;-84
2024/04/12 05:17:54;;;;;;;6.80;4.60;;;;;;;8.48;87.47;99728.16;4532843;26;20530;-84
2024/04/12 05:20:01;;;;;;;11.67;5.63;;;;;;;8.51;87.14;99721.09;4534594;26;21154;-83
2024/04/12 05:22:07;;;;;;;7.40;5.40;;;;;;;8.53;87.30;99724.50;4512873;26;20783;-83
2024/04/12 05:24:10;;;;;;;8.63;5.10;;;;;;;8.57;86.90;99725.25;4530817;26;21143;-82
2024/04/12 05:26:15;;;;;;;8.32;5.22;;;;;;;8.58;87.13;99713.94;4500260;26;20563;-82
2024/04/12 05:28:19;;;;;;;8.90;4.75;;;;;;;8.60;87.01;99709.53;4543695;26;20241;-83
2024/04/12 05:30:26;;;;;;;9.27;5.00;;;;;;;8.61;87.21;99712.06;4530927;26;20288;-81
2024/04/12 05:32:32;;;;;;;12.23;5.10;;;;;;;8.66;87.13;99717.09;4541527;26;20972;-83
2024/04/12 05:34:40;;;;;;;19.75;6.03;;;;;;;8.72;86.90;99709.97;4497204;26;20571;-83
2024/04/12 05:36:47;;;;;;;11.97;6.10;;;;;;;8.78;86.33;99721.88;4542144;26;20244;-82
2024/04/12 05:38:55;;;;;;;9.33;5.70;;;;;;;8.80;86.16;99726.16;4547265;26;20558;-83
2024/04/12 05:41:00;;;;;;;7.30;6.03;;;;;;;8.87;87.21;99729.38;4524154;26;20990;-81
2024/04/12 05:43:13;;;;;;;10.00;5.50;;;;;;;8.93;87.18;99724.81;4534963;26;20539;-82
2024/04/12 05:45:19;;;;;;;11.03;6.07;;;;;;;9.06;86.76;99724.28;4538719;26;20550;-83
2024/04/12 05:47:25;;;;;;;10.60;5.33;;;;;;;9.22;86.00;99735.03;4567221;25;21014;-80
2024/04/12 05:49:30;;;;;;;8.90;5.37;;;;;;;9.40;84.54;99727.38;4511208;26;21132;-81
2024/04/12 05:51:37;;;;;;;10.20;5.30;;;;;;;9.65;84.76;99741.16;4570594;25;20589;-81
2024/04/12 05:53:43;;;;;;;7.27;5.30;;;;;;;9.97;83.69;99750.31;4496268;26;20577;-81
2024/04/12 05:55:52;;;;;;;8.10;5.50;;;;;;;10.27;82.19;99743.88;4539875;26;20976;-81
2024/04/12 05:58:00;;;;;;;9.37;5.70;;;;;;;10.55;81.70;99745.25;4541852;25;20519;-81
2024/04/12 06:00:09;;;;;;;8.50;5.47;;;;;;;10.71;80.26;99735.88;4532656;26;20617;-81
2024/04/12 06:02:15;;;;;;;7.67;5.23;;;;;;;10.65;80.28;99732.69;4535741;26;20659;-83
2024/04/12 06:04:23;;;;;;;10.33;6.37;;;;;;;10.55;80.00;99733.97;4492796;26;20564;-83
2024/04/12 06:06:30;;;;;;;8.90;5.60;;;;;;;10.51;80.44;99733.28;4533819;26;20622;-82
2024/04/12 06:08:36;;;;;;;7.97;5.83;;;;;;;10.49;82.01;99742.06;4544898;25;20553;-82
2024/04/12 06:10:44;;;;;;;7.60;5.90;;;;;;;10.47;81.40;99738.69;4542046;26;20558;-83
2024/04/12 06:12:50;;;;;;;8.30;5.80;;;;;;;10.53;81.00;99746.25;4546923;26;20559;-83
2024/04/12 06:14:53;;;;;;;8.00;5.83;;;;;;;10.63;80.65;99761.44;4501754;26;21096;-83
2024/04/12 06:17:00;;;;;;;9.70;5.90;;;;;;;10.81;80.65;99761.50;4536806;26;20618;-83
2024/04/12 06:19:05;;;;;;;7.07;5.30;;;;;;;10.97;81.93;99767.75;4522545;25;20572;-83
2024/04/12 06:21:11;;;;;;;13.37;7.03;;;;;;;11.19;82.05;99772.94;4531022;26;20955;-83
2024/04/12 06:23:19;;;;;;;7.77;5.57;;;;;;;11.44;80.49;99776.97;4535355;26;20615;-83
2024/04/12 06:25:25;;;;;;;12.40;6.90;;;;;;;11.69;79.78;99770.59;4505154;26;21912;-82
2024/04/12 06:27:33;;;;;;;7.83;5.90;;;;;;;11.91;79.85;99779.16;4529033;26;20548;-84
2024/04/12 06:29:40;;;;;;;8.77;5.73;;;;;;;12.12;79.35;99784.22;4539625;26;20669;-84
2024/04/12 06:31:45;;;;;;;8.23;5.27;;;;;;;12.26;77.91;99779.16;4543832;26;20945;-83
2024/04/12 06:33:51;;;;;;;7.60;4.90;;;;;;;12.38;77.08;99784.66;4523428;26;20575;-83
2024/04/12 06:36:04;;;;;;;8.50;5.70;;;;;;;12.48;77.10;99780.69;4511267;26;21102;-83
2024/04/12 06:38:11;;;;;;;7.43;5.50;;;;;;;12.65;76.62;99791.16;4524560;26;20704;-83
2024/04/12 06:40:15;;;;;;;6.37;5.30;;;;;;;12.85;76.82;99796.28;4499763;26;20566;-81
2024/04/12 06:42:22;;;;;;;9.17;5.33;;;;;;;13.09;76.63;99790.63;4499085;26;20682;-82
2024/04/12 06:44:30;;;;;;;7.73;5.23;;;;;;;13.27;75.73;99797.56;4534476;26;20679;-82
2024/04/12 06:46:35;;;;;;;8.30;5.23;;;;;;;13.41;74.90;99795.06;4532141;26;20566;-81
2024/04/12 06:48:49;;;;;;;8.10;4.97;;;;;;;13.56;75.25;99789.00;4530315;26;20537;-80
2024/04/12 06:50:54;;;;;;;9.07;5.43;;;;;;;13.75;75.87;99798.44;4532236;26;20641;-81
2024/04/12 06:53:08;;;;;;;8.60;5.20;;;;;;;13.86;72.59;99802.19;4536050;26;20580;-82
2024/04/12 06:55:15;;;;;;;6.30;4.53;;;;;;;14.05;73.52;99807.31;4540898;26;20616;-82
2024/04/12 06:57:22;;;;;;;10.40;5.20;;;;;;;14.21;72.50;99809.00;4529929;26;20692;-82
2024/04/12 06:59:35;;;;;;;7.67;4.97;;;;;;;14.38;72.67;99806.28;4503574;26;20957;-82
2024/04/12 07:01:43;;;;;;;9.80;4.90;;;;;;;14.59;73.08;99809.38;4545117;26;20560;-83
2024/04/12 07:03:46;;;;;;;16.17;5.80;;;;;;;14.89;75.99;99791.84;4531953;26;20571;-82
2024/04/12 07:05:54;;;;;;;7.33;5.10;;;;;;;15.14;74.51;99792.13;4533466;26;20679;-82
2024/04/12 07:07:57;;;;;;;12.17;7.70;;;;;;;15.35;75.08;99806.63;4497265;26;20653;-82
2024/04/12 07:10:09;;;;;;;9.20;7.10;;;;;;;15.53;72.47;99802.88;4549635;26;21366;-82
2024/04/12 07:12:13;;;;;;;7.10;5.90;;;;;;;15.73;72.20;99798.09;4525629;26;20582;-82
2024/04/12 07:14:22;;;;;;;8.30;5.27;;;;;;;16.01;72.85;99805.97;4542770;26;20570;-82
2024/04/12 07:16:31;;;;;;;10.27;5.93;;;;;;;16.26;72.31;99805.19;4531296;26;20609;-80
2024/04/12 07:18:37;;;;;;;10.70;5.70;;;;;;;16.34;72.85;99808.19;4529437;26;20571;-80
2024/04/12 07:20:44;;;;;;;6.20;5.53;;;;;;;16.51;74.23;99808.78;4532483;26;20649;-79
2024/04/12 07:22:51;;;;;;;7.93;5.70;;;;;;;16.75;73.92;99811.63;4531887;26;20539;-80
2024/04/12 07:24:55;;;;;;;8.80;5.60;;;;;;;17.03;73.52;99813.19;4568753;26;21008;-80
2024/04/12 07:27:02;;;;;;;8.03;5.60;;;;;;;17.33;73.17;99807.66;4533940;26;20551;-80
2024/04/12 07:29:06;;;;;;;8.53;5.73;;;;;;;17.54;73.30;99810.50;4528529;26;20615;-80
2024/04/12 07:31:14;;;;;;;7.67;5.77;;;;;;;17.72;71.32;99811.88;4511510;26;20571;-80
2024/04/12 07:33:24;;;;;;;8.87;6.03;;;;;;;17.87;70.51;99813.44;4540219;26;20642;-80
2024/04/12 07:35:32;;;;;;;10.00;6.00;;;;;;;17.94;70.94;99815.53;4508259;26;20608;-80
2024/04/12 07:37:36;;;;;;;8.50;5.63;;;;;;;18.02;69.24;99812.34;4530934;26;20615;-80
2024/04/12 07:39:40;;;;;;;14.40;5.87;;;;;;;18.17;68.90;99825.34;4504847;26;20600;-80
2024/04/12 07:41:48;;;;;;;9.80;5.53;;;;;;;18.36;68.47;99825.72;4544495;26;21237;-80
2024/04/12 07:43:55;;;;;;;9.73;6.03;;;;;;;18.52;67.54;99828.94;4502193;26;20658;-80
2024/04/12 07:46:05;;;;;;;9.50;5.57;;;;;;;18.64;68.14;99822.75;4563666;25;20614;-80
2024/04/12 07:48:11;;;;;;;11.57;5.67;;;;;;;18.62;68.29;99820.22;4533413;26;20672;-80
2024/04/12 07:50:21;;;;;;;8.10;5.83;;;;;;;18.81;69.05;99819.72;4495251;26;20648;-80
2024/04/12 07:52:27;;;;;;;6.20;5.60;;;;;;;19.01;69.11;99818.16;4566611;25;20552;-80
2024/04/12 07:54:34;;;;;;;7.53;5.80;;;;;;;19.07;68.55;99809.75;4535006;26;22807;-79
2024/04/12 07:56:40;;;;;;;7.13;5.30;;;;;;;19.26;66.77;99804.78;4505948;26;20653;-80
2024/04/12 07:59:10;;;;;;;9.13;5.80;;;;;;;19.47;66.46;99804.00;4527360;26;21126;-80
2024/04/12 08:01:15;;;;;;;8.70;6.53;;;;;;;19.61;65.33;99805.56;4534363;26;20554;-80
2024/04/12 08:03:26;;;;;;;9.23;6.10;;;;;;;19.74;64.03;99801.84;4533813;26;21142;-80
2024/04/12 08:05:31;;;;;;;9.90;6.27;;;;;;;19.86;65.47;99800.94;4535709;26;21272;-80
2024/04/12 08:07:39;;;;;;;10.93;6.23;;;;;;;19.93;65.62;99781.75;4539283;26;20545;-80
2024/04/12 08:09:44;;;;;;;6.93;5.63;;;;;;;20.08;66.27;99779.72;4495813;26;20638;-80
2024/04/12 08:11:52;;;;;;;7.80;6.10;;;;;;;20.26;64.62;99784.38;4499259;26;20674;-80
2024/04/12 08:14:05;;;;;;;7.87;5.53;;;;;;;20.32;64.37;99782.06;4504688;26;21197;-80
2024/04/12 08:16:14;;;;;;;11.67;5.63;;;;;;;20.50;63.48;99782.41;4547734;25;20935;-81
2024/04/12 08:18:20;;;;;;;9.03;6.80;;;;;;;20.59;64.59;99779.84;4542535;26;20625;-80
2024/04/12 08:20:27;;;;;;;10.63;5.57;;;;;;;20.61;61.80;99774.41;4530553;26;21166;-79
2024/04/12 08:22:36;;;;;;;5.80;5.03;;;;;;;20.66;61.70;99774.84;4533245;26;20631;-80
2024/04/12 08:24:44;;;;;;;6.17;5.57;;;;;;;20.83;66.37;99776.03;4522105;26;20527;-80
2024/04/12 08:26:47;;;;;;;7.33;5.60;;;;;;;20.91;61.74;99767.44;4535096;26;20565;-80
2024/04/12 08:28:53;;;;;;;7.33;5.23;;;;;;;20.94;63.76;99767.19;4527882;26;20911;-80
2024/04/12 08:31:05;;;;;;;7.80;5.50;;;;;;;20.99;62.82;99765.00;4548635;26;20573;-80
2024/04/12 08:33:14;;;;;;;7.33;5.83;;;;;;;21.09;64.55;99768.56;4540078;26;20671;-80
2024/04/12 08:35:19;;;;;;;10.23;5.90;;;;;;;21.07;61.88;99768.69;4538483;26;20570;-80
2024/04/12 08:37:30;;;;;;;9.23;5.80;;;;;;;21.10;61.82;99768.44;4530501;26;20546;-79
2024/04/12 08:39:43;;;;;;;9.20;5.23;;;;;;;21.16;62.00;99767.09;4539271;26;20607;-80
2024/04/12 08:41:49;;;;;;;7.50;5.60;;;;;;;21.17;61.98;99763.44;4535198;26;20566;-80
2024/04/12 08:43:54;;;;;;;8.47;6.70;;;;;;;21.31;62.51;99764.78;4504928;26;20696;-80
2024/04/12 08:46:03;;;;;;;8.37;5.47;;;;;;;21.45;62.61;99767.13;4557073;25;20573;-80
2024/04/12 08:48:06;;;;;;;8.53;5.73;;;;;;;21.61;62.42;99779.97;4537942;26;20556;-79
2024/04/12 08:50:13;;;;;;;8.23;5.50;;;;;;;21.61;59.98;99775.50;4529985;26;20563;-80
2024/04/12 08:52:24;;;;;;;6.20;5.47;;;;;;;21.55;60.99;99773.34;4536049;26;20604;-80
2024/04/12 08:54:31;;;;;;;9.90;5.93;;;;;;;21.60;61.60;99779.09;4536612;26;20627;-80
2024/04/12 08:56:36;;;;;;;7.00;5.93;;;;;;;21.68;61.35;99770.47;4512094;26;21470;-80
2024/04/12 08:58:42;;;;;;;7.73;5.70;;;;;;;21.77;61.62;99773.22;4537502;26;20559;-80
2024/04/12 09:00:45;;;;;;;11.10;6.70;;;;;;;21.88;62.40;99767.78;4530201;26;20557;-80
2024/04/12 09:02:52;;;;;;;7.70;6.13;;;;;;;21.92;63.37;99769.19;4546689;26;20616;-80
2024/04/12 09:04:57;;;;;;;11.13;6.10;;;;;;;21.96;62.68;99776.75;4521999;26;20585;-79
2024/04/12 09:07:02;;;;;;;7.43;5.97;;;;;;;22.08;61.14;99772.19;4502031;26;20978;-79
2024/04/12 09:09:13;;;;;;;10.43;6.40;;;;;;;22.11;61.54;99775.41;4538151;26;21234;-79
2024/04/12 09:11:25;;;;;;;9.17;7.07;;;;;;;22.17;60.87;99774.88;4540474;26;20544;-80
2024/04/12 09:13:32;;;;;;;13.60;6.30;;;;;;;22.10;58.82;99762.25;4494960;26;20639;-79
2024/04/12 09:15:42;;;;;;;9.37;6.50;;;;;;;22.07;62.83;99763.38;4556683;26;20663;-79
2024/04/12 09:17:47;;;;;;;7.60;6.20;;;;;;;22.14;62.06;99769.00;4558739;25;20916;-80
2024/04/12 09:19:54;;;;;;;9.57;6.87;;;;;;;22.19;61.21;99764.09;4507096;26;20572;-80
2024/04/12 09:22:02;;;;;;;7.10;6.30;;;;;;;22.18;61.32;99775.75;4539556;26;20574;-79
2024/04/12 09:24:15;;;;;;;10.70;7.13;;;;;;;22.24;62.01;99776.06;4537254;26;20693;-80
2024/04/12 09:26:24;;;;;;;8.40;6.93;;;;;;;22.20;61.40;99768.47;4564918;26;20587;-80
2024/04/12 09:28:37;;;;;;;9.10;6.53;;;;;;;22.14;58.92;99769.81;4532970;26;20583;-79
2024/04/12 09:33:20;;;;;;;7.87;6.40;;;;;;;22.32;59.54;99779.69;4534042;26;20638;-80
2024/04/12 09:35:34;;;;;;;9.30;6.90;;;;;;;22.43;60.47;99781.41;4536180;26;20617;-80
2024/04/12 09:37:38;;;;;;;12.30;7.80;;;;;;;22.54;62.62;99789.28;4503851;26;20565;-80
2024/04/12 09:40:03;;;;;;;11.97;7.30;;;;;;;22.57;60.13;99781.03;4526141;26;20624;-79
2024/04/12 09:42:09;;;;;;;9.93;7.40;;;;;;;22.68;61.19;99778.25;4506198;26;20636;-79
2024/04/12 09:44:26;;;;;;;9.50;7.27;;;;;;;22.54;59.41;99779.47;4510396;26;20716;-80
2024/04/12 09:46:47;;;;;;;10.13;7.13;;;;;;;22.55;61.30;99775.84;4527714;26;20549;-82
2024/04/12 10:39:15;;;;;;;15.63;8.87;;;;;;;23.18;58.68;99722.88;4533503;26;20721;-80
2024/04/12 10:41:22;;;;;;;14.77;9.80;;;;;;;23.24;59.76;99717.84;4529761;26;20560;-81
2024/04/12 10:43:35;;;;;;;20.67;13.67;;;;;;;23.28;58.04;99711.22;4531192;26;21118;-79
2024/04/12 10:45:40;;;;;;;16.67;8.50;;;;;;;23.20;57.28;99710.28;4509262;26;20662;-79
2024/04/12 10:47:48;;;;;;;8.80;7.60;;;;;;;23.12;57.34;99698.66;4503743;26;20619;-81
2024/04/12 10:49:56;;;;;;;12.03;7.20;;;;;;;23.20;57.52;99696.97;4542489;26;20715;-81
2024/04/12 10:52:03;;;;;;;9.00;6.93;;;;;;;23.28;56.83;99700.56;4506674;26;20697;-81
2024/04/12 10:54:10;;;;;;;13.03;8.67;;;;;;;23.25;61.54;99697.38;4570165;25;20620;-80
2024/04/12 10:56:18;;;;;;;12.20;8.80;;;;;;;23.22;58.56;99693.16;4507182;26;20632;-80
2024/04/12 10:58:27;;;;;;;13.83;8.30;;;;;;;23.24;58.67;99698.34;4507794;26;21150;-80
2024/04/12 11:00:35;;;;;;;11.97;9.37;;;;;;;23.10;56.17;99687.31;4556965;26;20622;-80